Flight Track Log - Related Links

Times and Time Zones

All times are in EST time to prevent confusion due to time zone crossing. See the EJA922 flight status page for this flight to view local times or setup timezone preferences in your user account.

Time Position Orientation Groundspeed Altitude Reporting Facility
EST Latitude Longitude Course Direction KTS MPH feet Rate Location/Type
Wed 06:32:19 PM 40.8667 -74.0500 360° North 184 212 1,300  Level New York TRACON
Wed 06:33:19 PM 40.9167 -74.0500 360° North 214 246 3,200 1,350 Climbing New York TRACON
Wed 06:34:19 PM 40.9167 -74.1333 270° West 251 289 4,000 1,150 Climbing New York TRACON
Wed 06:35:19 PM 40.9167 -74.2333 270° West 264 304 5,500 1,500 Climbing New York TRACON
Wed 06:36:19 PM 40.9333 -74.3333 282° West 267 307 7,000 1,604 Climbing New York TRACON
Wed 06:37:00 PM 40.9328 -74.4075 269° West 264 304 8,200 1,782 Climbing New York Center
Wed 06:38:00 PM 40.9617 -74.4833 297° West 280 322 10,000 1,200 Climbing New York Center
Wed 06:39:00 PM 41.0406 -74.5536 326° Northwest 325 374 10,600 1,000 Climbing New York Center
Wed 06:40:00 PM 41.1175 -74.5608 356° North 336 387 12,000 700 Climbing New York Center
Wed 06:41:00 PM 41.2294 -74.5725 356° North 347 399 12,000  Level New York Center
Wed 06:42:00 PM 41.3208 -74.5833 355° North 369 425 12,000  Level New York Center
Wed 06:43:00 PM 41.4253 -74.6333 340° North 369 425 12,000 700 Level New York Center
Wed 06:44:00 PM 41.4783 -74.7333 305° West 353 406 13,400 1,500 Climbing New York Center
Wed 06:45:00 PM 41.5428 -74.8619 304° West 377 434 15,000 850 Climbing New York Center
Wed 06:46:00 PM 41.5944 -74.9900 298° West 389 448 15,100  Climbing New York Center
Wed 06:47:00 PM 41.6314 -75.1197 291° West 382 440 15,000 -50 Descending New York Center
Wed 06:48:00 PM 41.6725 -75.2475 293° West 382 440 15,000  Level New York Center
Wed 06:49:00 PM 41.7053 -75.3692 290° West 382 440 15,000  Level New York Center
Wed 06:50:00 PM 41.7514 -75.5169 293° West 382 440 15,000  Level New York Center
Wed 06:51:00 PM 41.7897 -75.6503 291° West 382 440 15,000  Level New York Center
Wed 06:52:00 PM 41.8300 -75.7869 292° West 387 445 15,000  Level New York Center
Wed 06:53:00 PM 41.8719 -75.9211 293° West 393 452 15,000 -700 Level New York Center
Wed 06:54:00 PM 41.9078 -76.0547 290° West 393 452 13,600 -1,600 Descending New York Center
Wed 06:55:00 PM 41.9422 -76.1719 292° West 385 443 11,800 -1,686 Descending New York Center
Wed 06:56:01 PM 41.9781 -76.2947 291° West 370 426 10,200 -1,600 Descending New York Center
Wed 06:57:00 PM 42.0086 -76.3978 292° West 325 374 8,600 -2,168 Descending New York Center
Wed 06:58:00 PM 42.0275 -76.4858 286° West 284 327 5,900 -2,250 Descending New York Center
Wed 06:59:00 PM 42.0378 -76.5733 279° West 259 298 4,100 -950 Descending New York Center
Wed 07:00:00 PM 42.0481 -76.6608 279° West 245 282 4,000 -50 Descending New York Center
Wed 07:01:00 PM 42.0586 -76.7400 280° West 232 267 4,000  Level New York Center
Wed 07:02:00 PM 42.0697 -76.8081 282° West 198 228 4,000  Level New York Center
Wed 07:03:00 PM 42.0767 -76.8758 278° West 181 208 4,000  Level New York Center
Wed 07:04:00 PM 42.0881 -76.9411 283° West 181 208 4,000 -500 Level New York Center
Wed 07:05:00 PM 42.1089 -76.9794 306° West 147 169 3,000 -750 Descending New York Center
Wed 07:06:00 PM 42.1281 -76.9728 14° North 89 102 2,500 3,000 Descending New York Center
Wed 07:07:00 PM 42.1475 -76.9969 317° Northwest 89 102 9,000 3,250 Climbing New York Center
Wed 07:08:00 PM 42.1672 -77.0183 321° Northwest 89 102 9,000  Level New York Center

Login

Don't have an account? Register now (free) for customized features, flight alerts, and more!